Time;durP1;ratioP1;P1;durP2;ratioP2;P2;SDS_P1;SDS_P2;PMS_P1;PMS_P2;Temp;Humidity;BMP_temperature;BMP_pressure;BME280_temperature;BME280_humidity;BME280_pressure;Samples;Min_cycle;Max_cycle;Signal;HPM_P1;HPM_P2
2021/10/15 00:03:36;;;;;;;9.23;6.20;;;;;8.90;101372.00;;;;10319627;28;20224;-81
2021/10/15 00:08:38;;;;;;;11.97;6.30;;;;;9.00;101372.00;;;;10304216;28;20622;-79
2021/10/15 00:13:40;;;;;;;8.80;6.07;;;;;9.00;101364.00;;;;10303436;28;20216;-82
2021/10/15 00:18:42;;;;;;;21.10;6.60;;;;;9.10;101362.00;;;;10318530;28;20200;-79
2021/10/15 00:23:44;;;;;;;11.67;6.47;;;;;9.10;101352.00;;;;10302024;28;20192;-79
2021/10/15 00:28:46;;;;;;;12.90;6.47;;;;;9.20;101358.00;;;;10301390;28;20197;-79
2021/10/15 00:33:48;;;;;;;10.57;6.63;;;;;9.30;101343.00;;;;10277968;28;20251;-79
2021/10/15 00:38:50;;;;;;;18.07;6.30;;;;;9.40;101330.00;;;;10273188;28;20679;-80
2021/10/15 00:44:02;;;;;;;9.23;5.87;;;;;9.50;101340.00;;;;10317883;28;20242;-80
2021/10/15 00:49:09;;;;;;;10.50;6.37;;;;;9.60;101324.00;;;;10294777;28;20219;-79
2021/10/15 00:54:13;;;;;;;13.97;6.40;;;;;9.80;101324.00;;;;10317207;28;20699;-80
2021/10/15 00:59:15;;;;;;;7.93;5.80;;;;;10.00;101314.00;;;;10284052;28;20196;-79
2021/10/15 01:04:19;;;;;;;14.07;6.07;;;;;10.10;101307.00;;;;10283686;28;20193;-79
2021/10/15 01:09:23;;;;;;;12.07;6.17;;;;;10.20;101311.00;;;;10351985;28;20250;-79
2021/10/15 01:14:25;;;;;;;10.83;5.70;;;;;10.30;101305.00;;;;10299249;28;20207;-79
2021/10/15 01:19:27;;;;;;;9.37;5.60;;;;;10.40;101301.00;;;;10308356;28;20279;-79
2021/10/15 01:24:29;;;;;;;9.57;5.73;;;;;10.50;101296.00;;;;10268593;28;20192;-79
2021/10/15 01:29:31;;;;;;;10.33;5.57;;;;;10.60;101291.00;;;;10298785;28;20200;-79
2021/10/15 01:34:33;;;;;;;7.73;5.47;;;;;10.70;101290.00;;;;10259598;28;20213;-79
2021/10/15 01:39:35;;;;;;;12.20;5.50;;;;;10.70;101278.00;;;;10280286;28;20196;-79
2021/10/15 01:44:37;;;;;;;7.13;5.40;;;;;10.80;101273.00;;;;10254670;28;20200;-79
2021/10/15 01:49:39;;;;;;;8.77;5.10;;;;;10.90;101261.00;;;;10283770;28;20196;-79
2021/10/15 01:54:41;;;;;;;10.87;5.03;;;;;11.00;101256.00;;;;10293041;28;20228;-79
2021/10/15 01:59:43;;;;;;;9.40;4.83;;;;;11.10;101248.00;;;;10282810;28;20555;-79
2021/10/15 02:04:45;;;;;;;8.00;4.97;;;;;11.20;101251.00;;;;10331062;28;20243;-79
2021/10/15 02:09:47;;;;;;;9.77;5.43;;;;;11.20;101248.00;;;;10277829;28;20703;-79
2021/10/15 02:14:49;;;;;;;9.47;4.73;;;;;11.20;101233.00;;;;10296023;28;20208;-80
2021/10/15 02:19:51;;;;;;;9.37;5.50;;;;;11.20;101225.00;;;;10282257;28;20196;-78
2021/10/15 02:24:53;;;;;;;12.70;5.70;;;;;11.30;101227.00;;;;10311081;28;20243;-79
2021/10/15 02:29:54;;;;;;;7.87;5.47;;;;;11.30;101222.00;;;;10283281;28;20243;-79
2021/10/15 02:34:56;;;;;;;10.70;5.97;;;;;11.30;101222.00;;;;10289809;28;20323;-79
2021/10/15 02:39:58;;;;;;;7.87;5.43;;;;;11.30;101222.00;;;;10289171;28;20196;-79
2021/10/15 02:45:03;;;;;;;12.23;6.07;;;;;11.30;101205.00;;;;10269188;28;20549;-79
2021/10/15 02:50:06;;;;;;;9.73;5.97;;;;;11.30;101212.00;;;;10304526;28;20675;-79
2021/10/15 02:55:08;;;;;;;9.23;5.60;;;;;11.30;101217.00;;;;10304369;28;20321;-80
2021/10/15 03:00:11;;;;;;;8.47;5.53;;;;;11.30;101215.00;;;;10320236;28;20215;-79
2021/10/15 03:05:13;;;;;;;8.07;5.17;;;;;11.20;101208.00;;;;10291666;28;20192;-79
2021/10/15 03:10:14;;;;;;;11.27;5.67;;;;;11.20;101196.00;;;;10304538;28;20224;-80
2021/10/15 03:15:16;;;;;;;10.07;6.70;;;;;11.20;101198.00;;;;10304221;28;20247;-79
2021/10/15 03:20:19;;;;;;;8.70;5.47;;;;;11.20;101198.00;;;;10319388;28;20220;-79
2021/10/15 03:25:23;;;;;;;13.03;5.97;;;;;11.20;101187.00;;;;10284423;28;20193;-79
2021/10/15 03:30:26;;;;;;;11.00;6.07;;;;;11.30;101199.00;;;;10303330;28;20197;-79
2021/10/15 03:35:28;;;;;;;13.00;6.90;;;;;11.30;101182.00;;;;10304107;28;20266;-79
2021/10/15 03:40:30;;;;;;;14.10;6.03;;;;;11.30;101183.00;;;;10271622;28;20196;-79
2021/10/15 03:45:32;;;;;;;9.43;6.47;;;;;11.30;101183.00;;;;10265240;28;20197;-79
2021/10/15 03:50:34;;;;;;;10.37;6.63;;;;;11.30;101182.00;;;;10287298;28;20192;-79
2021/10/15 03:55:36;;;;;;;11.50;6.13;;;;;11.30;101190.00;;;;10297163;28;20232;-80
2021/10/15 04:00:38;;;;;;;13.37;5.97;;;;;11.30;101179.00;;;;10302895;28;20207;-79
2021/10/15 04:05:40;;;;;;;10.03;6.20;;;;;11.30;101176.00;;;;10286333;28;20715;-79
2021/10/15 04:10:41;;;;;;;12.87;6.90;;;;;11.30;101162.00;;;;10292787;28;20207;-79
2021/10/15 04:15:43;;;;;;;11.70;6.77;;;;;11.30;101162.00;;;;10301969;28;20327;-79
2021/10/15 04:20:45;;;;;;;12.73;6.67;;;;;11.30;101154.00;;;;10317504;28;20251;-79
2021/10/15 04:25:47;;;;;;;7.17;5.73;;;;;11.30;101151.00;;;;10301177;28;20204;-80
2021/10/15 04:30:49;;;;;;;11.77;6.83;;;;;11.30;101149.00;;;;10333188;28;20247;-80
2021/10/15 04:35:52;;;;;;;11.90;7.17;;;;;11.30;101139.00;;;;10300123;28;20295;-79
2021/10/15 04:40:53;;;;;;;13.10;7.37;;;;;11.40;101132.00;;;;10301089;28;20257;-79
2021/10/15 04:45:59;;;;;;;7.07;6.33;;;;;11.40;101142.00;;;;10301883;28;20195;-80
2021/10/15 04:51:02;;;;;;;8.73;6.17;;;;;11.40;101134.00;;;;10311339;28;20244;-80
2021/10/15 04:56:04;;;;;;;11.97;7.30;;;;;11.40;101118.00;;;;10315797;28;20239;-80
2021/10/15 05:01:06;;;;;;;12.23;6.50;;;;;11.40;101117.00;;;;10316396;28;20239;-79
2021/10/15 05:06:08;;;;;;;11.43;6.87;;;;;11.40;101120.00;;;;10287825;28;20567;-80
2021/10/15 05:11:10;;;;;;;10.17;7.07;;;;;11.40;101111.00;;;;10316238;28;20231;-80
2021/10/15 05:16:12;;;;;;;13.87;6.97;;;;;11.40;101128.00;;;;10300187;28;20200;-79
2021/10/15 05:21:14;;;;;;;11.33;7.10;;;;;11.40;101121.00;;;;10278143;28;20192;-80
2021/10/15 05:26:16;;;;;;;15.70;7.20;;;;;11.40;101131.00;;;;10283494;28;20196;-80
2021/10/15 05:31:18;;;;;;;15.90;6.80;;;;;11.40;101133.00;;;;10285475;28;20702;-79
2021/10/15 05:36:20;;;;;;;12.17;6.90;;;;;11.40;101128.00;;;;10268338;28;20283;-79
2021/10/15 05:41:22;;;;;;;11.33;7.03;;;;;11.40;101123.00;;;;10283693;28;20196;-80
2021/10/15 05:46:24;;;;;;;10.30;6.60;;;;;11.40;101123.00;;;;10315339;28;20207;-80
2021/10/15 05:51:27;;;;;;;10.77;6.77;;;;;11.40;101126.00;;;;10282262;28;20208;-80
2021/10/15 05:56:43;;;;;;;12.70;7.50;;;;;11.40;101123.00;;;;10283744;28;20310;-80
2021/10/15 06:01:45;;;;;;;9.43;7.03;;;;;11.40;101125.00;;;;10314787;28;20192;-80
2021/10/15 06:17:29;;;;;;;13.63;7.27;;;;;11.50;101134.00;;;;10306744;28;20868;-79
2021/10/15 06:22:31;;;;;;;12.20;7.83;;;;;11.50;101144.00;;;;10307149;28;20648;-80
2021/10/15 06:27:33;;;;;;;13.30;7.67;;;;;11.60;101145.00;;;;10323660;28;20615;-80
2021/10/15 06:32:35;;;;;;;12.23;8.47;;;;;11.60;101153.00;;;;10291119;28;20216;-80
2021/10/15 06:37:37;;;;;;;13.73;8.27;;;;;11.70;101155.00;;;;10289784;28;20192;-80
2021/10/15 06:42:39;;;;;;;10.40;7.57;;;;;11.70;101157.00;;;;10290364;28;20189;-79
2021/10/15 06:47:41;;;;;;;16.27;8.97;;;;;11.70;101157.00;;;;10289523;28;20219;-80
2021/10/15 06:52:46;;;;;;;12.77;8.77;;;;;11.80;101155.00;;;;10289818;28;20248;-80
2021/10/15 06:57:49;;;;;;;13.60;8.43;;;;;11.80;101154.00;;;;10269346;28;20291;-79
2021/10/15 07:02:51;;;;;;;12.73;8.60;;;;;11.80;101168.00;;;;10304809;28;20211;-79
2021/10/15 07:07:53;;;;;;;12.57;7.63;;;;;11.90;101173.00;;;;10329618;28;20211;-80
2021/10/15 07:12:55;;;;;;;15.17;8.30;;;;;11.90;101181.00;;;;10323071;28;20208;-79
2021/10/15 07:17:58;;;;;;;19.43;10.07;;;;;11.90;101185.00;;;;10286373;28;20208;-79
2021/10/15 07:23:01;;;;;;;13.70;9.00;;;;;12.00;101180.00;;;;10289061;28;20615;-80
2021/10/15 07:28:03;;;;;;;16.97;8.93;;;;;12.10;101188.00;;;;10295061;28;20195;-80
2021/10/15 07:33:05;;;;;;;13.90;8.93;;;;;12.30;101191.00;;;;10275219;28;20295;-79
2021/10/15 07:38:08;;;;;;;14.30;9.13;;;;;12.30;101197.00;;;;10293239;28;20200;-79
2021/10/15 07:43:10;;;;;;;13.00;8.50;;;;;12.30;101186.00;;;;10279958;28;20200;-80
2021/10/15 07:48:11;;;;;;;15.33;9.03;;;;;12.50;101198.00;;;;10287399;28;20312;-80
2021/10/15 07:53:14;;;;;;;15.27;10.33;;;;;12.60;101186.00;;;;10306714;28;20208;-80
2021/10/15 07:58:17;;;;;;;11.60;8.67;;;;;12.80;101190.00;;;;10287167;28;20278;-80
2021/10/15 08:03:19;;;;;;;11.37;8.83;;;;;12.80;101198.00;;;;10308250;28;20220;-79
2021/10/15 08:08:22;;;;;;;14.23;9.33;;;;;12.90;101200.00;;;;10298352;28;20212;-80
2021/10/15 08:13:24;;;;;;;13.80;10.00;;;;;13.10;101199.00;;;;10259555;28;20216;-80
2021/10/15 08:18:26;;;;;;;12.10;8.80;;;;;13.40;101194.00;;;;10279261;28;20228;-80
2021/10/15 08:23:29;;;;;;;17.70;8.83;;;;;13.60;101202.00;;;;10287821;28;20200;-80
2021/10/15 08:28:34;;;;;;;12.13;8.80;;;;;13.70;101211.00;;;;10317523;28;20223;-79
2021/10/15 08:33:45;;;;;;;19.97;9.23;;;;;14.20;101210.00;;;;10297200;28;20200;-79
2021/10/15 08:38:47;;;;;;;16.00;9.13;;;;;14.50;101218.00;;;;10296030;28;20208;-79
2021/10/15 08:43:52;;;;;;;15.20;8.10;;;;;14.60;101224.00;;;;10301701;28;20572;-79
2021/10/15 08:48:54;;;;;;;17.30;9.63;;;;;14.40;101230.00;;;;10286245;28;20250;-79
2021/10/15 08:53:58;;;;;;;15.63;9.00;;;;;14.20;101230.00;;;;10292116;28;20204;-79
2021/10/15 08:59:05;;;;;;;13.80;8.17;;;;;14.50;101229.00;;;;10285556;28;20208;-79
2021/10/15 09:04:07;;;;;;;15.70;8.33;;;;;14.70;101227.00;;;;10267715;28;20197;-79
2021/10/15 09:09:09;;;;;;;20.43;8.67;;;;;14.50;101231.00;;;;10331668;28;20670;-80
2021/10/15 09:14:22;;;;;;;15.20;8.60;;;;;14.80;101237.00;;;;10282728;28;20208;-79
2021/10/15 09:19:31;;;;;;;20.20;9.00;;;;;15.00;101249.00;;;;10276615;28;20665;-79
2021/10/15 09:24:59;;;;;;;17.70;10.07;;;;;14.80;101257.00;;;;10311085;28;20200;-79
2021/10/15 09:30:21;;;;;;;12.57;8.47;;;;;14.30;101261.00;;;;10293971;28;20769;-79
2021/10/15 09:35:26;;;;;;;16.73;9.03;;;;;13.90;101262.00;;;;10326733;28;20205;-79
2021/10/15 09:40:48;;;;;;;18.30;10.13;;;;;13.70;101268.00;;;;10301928;28;20200;-79
2021/10/15 09:45:52;;;;;;;15.27;9.37;;;;;13.50;101274.00;;;;10284014;28;20644;-79
2021/10/15 09:51:19;;;;;;;17.60;9.37;;;;;13.20;101282.00;;;;10299906;28;20197;-80
2021/10/15 09:56:49;;;;;;;14.73;10.20;;;;;12.90;101283.00;;;;10283675;28;20220;-80
2021/10/15 10:01:51;;;;;;;13.93;9.47;;;;;12.70;101274.00;;;;10287628;28;20219;-80
2021/10/15 10:06:53;;;;;;;14.80;10.17;;;;;12.70;101286.00;;;;10300305;28;20207;-82
2021/10/15 10:11:55;;;;;;;16.77;11.07;;;;;12.70;101278.00;;;;10301925;28;20282;-82
2021/10/15 10:16:57;;;;;;;17.97;10.83;;;;;12.60;101278.00;;;;10285517;28;20665;-80
2021/10/15 10:21:59;;;;;;;15.53;10.13;;;;;12.70;101287.00;;;;10284701;28;20195;-80
2021/10/15 10:27:01;;;;;;;11.63;6.97;;;;;12.90;101306.00;;;;10316478;28;20204;-80
2021/10/15 10:32:14;;;;;;;6.87;4.50;;;;;13.30;101327.00;;;;10274328;28;20210;-79
2021/10/15 10:37:18;;;;;;;6.00;3.63;;;;;13.70;101356.00;;;;10283788;28;20247;-80
2021/10/15 10:42:29;;;;;;;5.40;2.70;;;;;13.70;101369.00;;;;10291557;28;20192;-79
2021/10/15 10:47:31;;;;;;;5.50;2.27;;;;;13.90;101377.00;;;;10314846;28;20644;-79
2021/10/15 10:52:35;;;;;;;5.53;2.57;;;;;14.10;101391.00;;;;10300751;28;20211;-79
2021/10/15 10:57:41;;;;;;;4.90;2.53;;;;;15.00;101406.00;;;;10289088;28;20220;-79
2021/10/15 11:02:44;;;;;;;5.30;2.00;;;;;14.90;101414.00;;;;10305812;28;20247;-79
2021/10/15 11:07:47;;;;;;;4.60;1.63;;;;;14.50;101422.00;;;;10313106;28;20207;-79
2021/10/15 11:12:48;;;;;;;6.13;1.90;;;;;14.20;101437.00;;;;10320928;28;20212;-79
2021/10/15 11:17:50;;;;;;;5.00;1.50;;;;;14.00;101434.00;;;;10289177;28;20200;-79
2021/10/15 11:23:07;;;;;;;7.67;1.83;;;;;14.40;101438.00;;;;10272986;28;20735;-79
2021/10/15 11:28:13;;;;;;;4.10;1.50;;;;;14.80;101442.00;;;;10288849;28;20196;-80
2021/10/15 11:33:17;;;;;;;5.40;1.43;;;;;15.00;101439.00;;;;10304629;28;20699;-79
2021/10/15 11:38:25;;;;;;;5.67;1.90;;;;;15.00;101436.00;;;;10288315;28;20239;-80
2021/10/15 11:43:32;;;;;;;4.63;1.53;;;;;15.10;101435.00;;;;10286745;28;20668;-80
2021/10/15 11:48:44;;;;;;;4.63;1.53;;;;;15.40;101438.00;;;;10286182;28;20250;-80
2021/10/15 11:53:49;;;;;;;4.85;1.27;;;;;15.40;101437.00;;;;10304213;28;20208;-79
2021/10/15 11:58:52;;;;;;;4.63;1.13;;;;;15.00;101431.00;;;;10318074;28;20196;-79
2021/10/15 12:04:03;;;;;;;6.50;1.53;;;;;16.20;101437.00;;;;10286752;28;20207;-79
2021/10/15 12:09:18;;;;;;;3.63;1.67;;;;;16.60;101438.00;;;;10320538;28;20204;-79
2021/10/15 12:14:27;;;;;;;5.13;1.08;;;;;16.60;101431.00;;;;10295003;28;20295;-79
2021/10/15 12:19:33;;;;;;;5.30;1.83;;;;;16.70;101438.00;;;;10284805;28;20295;-79
2021/10/15 12:24:43;;;;;;;5.28;1.13;;;;;16.60;101444.00;;;;10289666;28;20209;-79
2021/10/15 12:29:53;;;;;;;5.57;1.98;;;;;16.60;101443.00;;;;10311080;28;20204;-79
2021/10/15 12:35:13;;;;;;;4.50;1.05;;;;;16.10;101451.00;;;;10314688;28;20231;-79
2021/10/15 12:40:25;;;;;;;7.40;1.40;;;;;15.80;101454.00;;;;10285217;28;20204;-79
2021/10/15 12:45:30;;;;;;;8.00;1.55;;;;;15.60;101459.00;;;;10279127;28;20220;-79
2021/10/15 12:50:40;;;;;;;10.75;2.30;;;;;15.90;101456.00;;;;10251332;28;20230;-79
2021/10/15 12:56:01;;;;;;;4.68;1.50;;;;;16.20;101462.00;;;;10299913;28;20243;-79
2021/10/15 13:01:04;;;;;;;4.13;1.30;;;;;16.40;101455.00;;;;10316566;28;20203;-79
2021/10/15 13:06:06;;;;;;;4.68;1.48;;;;;16.60;101447.00;;;;10302903;28;20299;-80
2021/10/15 13:11:08;;;;;;;6.72;1.73;;;;;17.00;101443.00;;;;10300502;28;20204;-79
2021/10/15 13:16:10;;;;;;;9.05;1.60;;;;;17.30;101446.00;;;;10282513;28;20215;-78
2021/10/15 13:21:12;;;;;;;5.18;1.90;;;;;17.60;101445.00;;;;10284002;28;20559;-78
2021/10/15 13:26:15;;;;;;;6.07;2.10;;;;;18.20;101453.00;;;;10304149;28;20184;-79
2021/10/15 13:31:37;;;;;;;6.00;1.70;;;;;18.20;101458.00;;;;10299433;28;20279;-78
2021/10/15 13:36:42;;;;;;;6.82;1.55;;;;;18.10;101455.00;;;;10288178;28;20218;-78
2021/10/15 13:52:08;;;;;;;7.88;1.80;;;;;16.90;101457.00;;;;10316483;28;20188;-79
2021/10/15 13:57:15;;;;;;;5.78;1.83;;;;;16.90;101460.00;;;;10312047;28;20219;-79
2021/10/15 14:02:17;;;;;;;6.10;2.15;;;;;16.50;101469.00;;;;10314753;28;20664;-79
2021/10/15 14:07:19;;;;;;;7.53;2.50;;;;;15.90;101460.00;;;;10302765;28;20853;-79
2021/10/15 14:12:24;;;;;;;6.63;1.60;;;;;15.80;101460.00;;;;10296207;28;20200;-78
2021/10/15 14:17:27;;;;;;;7.68;2.03;;;;;15.70;101466.00;;;;10299441;28;20539;-79
2021/10/15 14:22:28;;;;;;;6.05;1.92;;;;;15.60;101469.00;;;;10298953;28;20235;-79
2021/10/15 14:27:30;;;;;;;9.77;2.30;;;;;15.60;101473.00;;;;10316611;28;20192;-79
2021/10/15 14:32:32;;;;;;;7.97;2.10;;;;;15.40;101470.00;;;;10317335;28;20242;-79
2021/10/15 14:37:50;;;;;;;6.55;1.58;;;;;15.20;101476.00;;;;10300634;28;20226;-80
2021/10/15 14:42:52;;;;;;;10.67;2.00;;;;;14.90;101472.00;;;;10342009;28;20187;-79
2021/10/15 14:47:54;;;;;;;5.50;1.77;;;;;14.60;101473.00;;;;10336847;28;20196;-79
2021/10/15 14:52:56;;;;;;;9.57;2.50;;;;;14.40;101474.00;;;;10316981;28;20348;-80
2021/10/15 14:57:58;;;;;;;6.77;1.90;;;;;14.40;101472.00;;;;10321117;28;20221;-79
2021/10/15 15:03:01;;;;;;;8.80;2.20;;;;;14.20;101478.00;;;;10275647;28;20196;-79
2021/10/15 15:08:04;;;;;;;8.60;3.27;;;;;14.30;101483.00;;;;10339391;28;20196;-80
2021/10/15 15:13:06;;;;;;;7.97;2.20;;;;;14.00;101481.00;;;;10321960;28;20238;-78
2021/10/15 15:18:08;;;;;;;8.37;2.50;;;;;13.80;101481.00;;;;10301477;28;20215;-79
2021/10/15 15:23:10;;;;;;;8.17;2.93;;;;;13.60;101478.00;;;;10278115;28;20184;-80
2021/10/15 15:28:12;;;;;;;11.70;2.57;;;;;13.40;101483.00;;;;10299702;28;20188;-79
2021/10/15 15:33:15;;;;;;;11.27;5.03;;;;;13.30;101479.00;;;;10266926;28;20249;-80
2021/10/15 15:38:18;;;;;;;16.17;4.57;;;;;13.20;101481.00;;;;10278455;28;20243;-81
2021/10/15 15:43:20;;;;;;;12.67;5.07;;;;;13.00;101483.00;;;;10285406;28;20210;-82
2021/10/15 15:48:24;;;;;;;20.90;8.67;;;;;12.90;101479.00;;;;10296089;28;20195;-80
2021/10/15 15:53:28;;;;;;;20.77;11.73;;;;;12.80;101471.00;;;;10286557;28;21102;-80
2021/10/15 15:58:30;;;;;;;21.10;9.20;;;;;12.60;101474.00;;;;10281060;28;20235;-82
2021/10/15 16:03:32;;;;;;;12.63;5.03;;;;;12.50;101470.00;;;;10298788;28;20189;-83
2021/10/15 16:08:34;;;;;;;11.30;3.60;;;;;12.50;101489.00;;;;10265138;28;20763;-79
2021/10/15 16:13:36;;;;;;;8.33;3.27;;;;;12.50;101487.00;;;;10280180;28;20208;-83
2021/10/15 16:18:39;;;;;;;13.07;3.53;;;;;12.50;101485.00;;;;10277553;28;20224;-83
2021/10/15 16:23:40;;;;;;;13.57;3.30;;;;;12.60;101494.00;;;;10292982;28;20197;-82
2021/10/15 16:28:42;;;;;;;7.43;3.40;;;;;12.60;101493.00;;;;10298500;28;20192;-82
2021/10/15 16:33:44;;;;;;;9.90;3.90;;;;;12.60;101496.00;;;;10269471;28;20676;-81
2021/10/15 16:38:47;;;;;;;9.37;3.40;;;;;12.50;101500.00;;;;10282868;28;20200;-82
2021/10/15 16:43:49;;;;;;;6.63;3.07;;;;;12.30;101493.00;;;;10297073;28;20239;-83
2021/10/15 16:48:51;;;;;;;10.10;2.60;;;;;12.20;101506.00;;;;10280610;28;20922;-82
2021/10/15 16:53:55;;;;;;;9.10;2.13;;;;;12.20;101520.00;;;;10276212;28;20570;-80
2021/10/15 16:58:58;;;;;;;10.20;2.53;;;;;12.20;101520.00;;;;10299990;28;20255;-80
2021/10/15 17:04:00;;;;;;;7.70;2.87;;;;;12.10;101532.00;;;;10297477;28;20203;-80
2021/10/15 17:09:03;;;;;;;9.40;2.57;;;;;12.00;101534.00;;;;10323032;28;20199;-80
2021/10/15 17:14:05;;;;;;;9.23;2.70;;;;;12.00;101546.00;;;;10307680;28;20266;-79
2021/10/15 17:19:07;;;;;;;6.50;2.40;;;;;12.00;101541.00;;;;10297396;28;20230;-82
2021/10/15 17:24:09;;;;;;;7.17;2.17;;;;;12.00;101555.00;;;;10287399;28;20219;-80
2021/10/15 17:29:11;;;;;;;10.13;2.20;;;;;11.90;101563.00;;;;10297537;28;20196;-80
2021/10/15 17:34:13;;;;;;;12.87;3.00;;;;;11.70;101577.00;;;;10266611;28;20696;-80
2021/10/15 17:39:18;;;;;;;11.70;3.27;;;;;11.50;101584.00;;;;10249479;28;20277;-83
2021/10/15 17:44:20;;;;;;;11.43;6.37;;;;;11.30;101590.00;;;;10278590;28;20279;-80
2021/10/15 17:49:34;;;;;;;13.57;7.00;;;;;11.20;101600.00;;;;10296633;28;20203;-81
2021/10/15 17:54:36;;;;;;;11.80;4.10;;;;;11.10;101599.00;;;;10281854;28;20270;-80
2021/10/15 17:59:38;;;;;;;11.30;3.20;;;;;11.10;101597.00;;;;10295824;28;20200;-81
2021/10/15 18:04:40;;;;;;;10.53;3.47;;;;;11.10;101600.00;;;;10303088;28;20191;-80
2021/10/15 18:09:44;;;;;;;8.30;3.60;;;;;11.10;101607.00;;;;10271045;28;20204;-80
2021/10/15 18:14:49;;;;;;;10.73;3.93;;;;;11.20;101603.00;;;;10279633;28;20212;-80
2021/10/15 18:19:51;;;;;;;11.57;5.00;;;;;11.20;101605.00;;;;10309417;28;20197;-80
2021/10/15 18:24:52;;;;;;;8.13;3.77;;;;;11.20;101606.00;;;;10280239;28;20342;-80
2021/10/15 18:29:54;;;;;;;10.87;3.53;;;;;11.20;101602.00;;;;10284776;28;20350;-84
2021/10/15 18:34:56;;;;;;;6.90;3.53;;;;;11.20;101603.00;;;;10304436;28;20469;-81
2021/10/15 18:39:58;;;;;;;14.27;4.27;;;;;11.20;101608.00;;;;10280383;28;20656;-83
2021/10/15 18:45:00;;;;;;;14.27;4.33;;;;;11.20;101623.00;;;;10278690;28;20675;-80
2021/10/15 18:50:05;;;;;;;8.47;4.40;;;;;11.20;101626.00;;;;10283402;28;20193;-80
2021/10/15 18:55:08;;;;;;;15.00;4.93;;;;;11.20;101636.00;;;;10307070;28;20281;-83
2021/10/15 19:00:11;;;;;;;14.73;6.67;;;;;11.20;101634.00;;;;10301844;28;20290;-81
2021/10/15 19:05:13;;;;;;;19.37;6.73;;;;;11.20;101633.00;;;;10304272;28;20279;-81
2021/10/15 19:10:15;;;;;;;20.77;6.53;;;;;11.20;101641.00;;;;10341807;28;20205;-80
2021/10/15 19:15:21;;;;;;;17.77;6.97;;;;;11.20;101639.00;;;;10299306;28;20204;-83
2021/10/15 19:20:23;;;;;;;14.83;5.40;;;;;11.10;101639.00;;;;10313859;28;20203;-83
2021/10/15 19:25:25;;;;;;;18.07;5.27;;;;;11.20;101640.00;;;;10319725;28;20654;-80
2021/10/15 19:30:27;;;;;;;12.97;4.20;;;;;11.10;101643.00;;;;10299239;28;20278;-81
2021/10/15 19:35:30;;;;;;;12.13;4.10;;;;;11.10;101641.00;;;;10294679;28;20211;-81
2021/10/15 19:40:33;;;;;;;12.43;4.93;;;;;11.10;101643.00;;;;10299013;28;20207;-80
2021/10/15 19:45:35;;;;;;;11.70;4.30;;;;;11.10;101645.00;;;;10282955;28;20251;-80
2021/10/15 19:50:37;;;;;;;13.47;4.67;;;;;11.00;101652.00;;;;10307331;28;20279;-81
2021/10/15 19:55:39;;;;;;;13.80;4.07;;;;;11.00;101657.00;;;;10265324;28;20722;-81
2021/10/15 20:00:41;;;;;;;13.30;4.47;;;;;10.90;101658.00;;;;10283341;28;20553;-80
2021/10/15 20:05:43;;;;;;;19.70;4.47;;;;;10.90;101665.00;;;;10270690;28;20200;-80
2021/10/15 20:10:45;;;;;;;13.10;4.67;;;;;10.80;101660.00;;;;10280990;28;20207;-80
2021/10/15 20:15:49;;;;;;;15.73;4.23;;;;;10.70;101673.00;;;;10292047;28;20216;-81
2021/10/15 20:20:51;;;;;;;15.27;4.60;;;;;10.60;101676.00;;;;10297687;28;20188;-83
2021/10/15 20:25:55;;;;;;;21.57;5.00;;;;;10.50;101670.00;;;;10296400;28;20207;-83
2021/10/15 20:30:58;;;;;;;14.87;5.03;;;;;10.40;101682.00;;;;10295228;28;20200;-81
2021/10/15 20:35:59;;;;;;;16.50;5.00;;;;;10.30;101675.00;;;;10297240;28;20275;-83
2021/10/15 20:41:02;;;;;;;14.83;5.03;;;;;10.20;101685.00;;;;10296799;28;20239;-81
2021/10/15 20:46:04;;;;;;;12.43;4.70;;;;;10.00;101680.00;;;;10293452;28;20251;-84
2021/10/15 20:51:06;;;;;;;15.57;4.77;;;;;9.80;101683.00;;;;10277442;28;20200;-81
2021/10/15 20:56:09;;;;;;;20.03;5.40;;;;;9.60;101682.00;;;;10296904;28;20221;-83
2021/10/15 21:01:11;;;;;;;19.57;5.40;;;;;9.60;101683.00;;;;10296637;28;20196;-80
2021/10/15 21:06:13;;;;;;;18.27;5.67;;;;;9.50;101692.00;;;;10279314;28;20210;-80
2021/10/15 21:11:15;;;;;;;18.47;5.33;;;;;9.40;101690.00;;;;10275839;28;20204;-83
2021/10/15 21:16:17;;;;;;;17.77;6.03;;;;;9.30;101690.00;;;;10261429;28;20223;-83
2021/10/15 21:21:23;;;;;;;16.57;5.40;;;;;9.30;101699.00;;;;10306723;28;20193;-83
2021/10/15 21:26:26;;;;;;;19.77;5.30;;;;;9.30;101703.00;;;;10296241;28;20223;-81
2021/10/15 21:31:29;;;;;;;18.40;5.50;;;;;9.30;101698.00;;;;10297461;28;20192;-80
2021/10/15 21:36:31;;;;;;;20.13;5.53;;;;;9.40;101705.00;;;;10294087;28;20253;-80
2021/10/15 21:41:33;;;;;;;10.67;5.23;;;;;9.40;101699.00;;;;10279898;28;20211;-83
2021/10/15 21:46:35;;;;;;;15.27;4.93;;;;;9.50;101706.00;;;;10294017;28;20199;-83
2021/10/15 21:51:37;;;;;;;15.93;5.03;;;;;9.40;101710.00;;;;10280880;28;20211;-83
2021/10/15 21:56:43;;;;;;;14.93;4.73;;;;;9.40;101714.00;;;;10281278;28;20230;-80
2021/10/15 22:01:45;;;;;;;14.53;5.23;;;;;9.30;101708.00;;;;10282035;28;20310;-82
2021/10/15 22:06:49;;;;;;;15.87;5.10;;;;;9.10;101691.00;;;;10281546;28;20257;-80
2021/10/15 22:11:53;;;;;;;15.67;5.47;;;;;8.90;101692.00;;;;10280798;28;20501;-80
2021/10/15 22:16:55;;;;;;;16.17;6.17;;;;;8.80;101693.00;;;;10326476;28;20278;-82
2021/10/15 22:21:56;;;;;;;18.27;5.63;;;;;8.70;101697.00;;;;10279521;28;20254;-83
2021/10/15 22:26:59;;;;;;;14.87;5.10;;;;;8.60;101693.00;;;;10325113;28;20301;-83
2021/10/15 22:32:02;;;;;;;17.03;5.83;;;;;8.60;101703.00;;;;10277644;28;20225;-80
2021/10/15 22:37:04;;;;;;;22.60;5.97;;;;;8.50;101704.00;;;;10280150;28;20251;-83
2021/10/15 22:42:08;;;;;;;17.30;5.80;;;;;8.50;101701.00;;;;10277839;28;20219;-83
2021/10/15 22:47:11;;;;;;;11.70;4.77;;;;;8.40;101693.00;;;;10267008;28;20652;-83
2021/10/15 22:52:13;;;;;;;14.03;5.73;;;;;8.30;101700.00;;;;10271656;28;20254;-83
2021/10/15 22:57:17;;;;;;;13.33;6.13;;;;;8.20;101698.00;;;;10303143;28;20220;-83
2021/10/15 23:02:19;;;;;;;16.10;5.83;;;;;8.10;101684.00;;;;10287576;28;20668;-83
2021/10/15 23:07:21;;;;;;;10.73;5.47;;;;;8.10;101692.00;;;;10305808;28;20203;-82
2021/10/15 23:12:23;;;;;;;17.10;5.93;;;;;8.10;101699.00;;;;10299158;28;20196;-83
2021/10/15 23:17:25;;;;;;;16.53;5.80;;;;;8.10;101682.00;;;;10302879;28;20291;-83
2021/10/15 23:22:27;;;;;;;10.80;5.70;;;;;8.00;101690.00;;;;10261752;28;20809;-83
2021/10/15 23:27:29;;;;;;;10.20;4.83;;;;;7.90;101674.00;;;;10246543;28;20271;-83
2021/10/15 23:32:31;;;;;;;17.00;5.40;;;;;7.80;101670.00;;;;10299149;28;20227;-83
2021/10/15 23:37:34;;;;;;;14.80;5.63;;;;;7.60;101672.00;;;;10286227;28;20264;-83
2021/10/15 23:42:36;;;;;;;17.47;5.17;;;;;7.50;101663.00;;;;10317989;28;20231;-83
2021/10/15 23:47:37;;;;;;;11.30;4.90;;;;;7.30;101671.00;;;;10301095;28;20188;-84
2021/10/15 23:52:39;;;;;;;16.03;5.07;;;;;7.10;101660.00;;;;10317695;28;20218;-83
2021/10/15 23:57:41;;;;;;;13.87;5.13;;;;;7.00;101667.00;;;;10300288;28;20276;-83
